Parker, AZ

7:16 AM MST on July 30, 2016 (GMT -0700)
The Keys | | Change Station

Elev 381 ft 34.20 °N, 114.22 °W | Updated 15 seconds ago

Overcast
Overcast
77.7 °F
Feels Like 80 °F
N
0.0
Wind Variable Wind from SW
Gusts 0.0 mph

Today
High -- | Low -- °F
--% Chance of Precip.
Yesterday
High -- | Low -- °F
Precip. -- in
Pressure 29.87 in
Visibility 9.0 miles
Clouds Scattered Clouds 9500 ft
Mostly Cloudy 11000 ft
Heat Index 80 °F
Dew Point 70 °F
Humidity 78%
Rainfall 0.46 in
Snow Depth Not available.
5:47 AM 7:39 PM
Waning Crescent, 13% visible
SPECI KBLH 301411Z AUTO 22014KT 9SM VCTS -RA SCT095 BKN110 25/24 A2987 RMK AO2 LTG DSNT SW TSE05 PRESFR P0001 T02500239
Pressure 29.87 in
Visibility 9.0 miles
Clouds Scattered Clouds 9500 ft
Mostly Cloudy 11000 ft
Heat Index 80 °F
Dew Point 70 °F
Humidity 78%
Rainfall 0.46 in
Snow Depth Not available.
5:47 AM 7:39 PM
Waning Crescent, 13% visible
SPECI KBLH 301411Z AUTO 22014KT 9SM VCTS -RA SCT095 BKN110 25/24 A2987 RMK AO2 LTG DSNT SW TSE05 PRESFR P0001 T02500239

10-Day Weather Forecast

Almanac

Astronomy

Jul. 30, 2016 Rise Set
Actual Time
Civil Twilight
Nautical Twilight
Astronomical Twilight
Moon
Length of Visible Light
Length of Day
Tomorrow will be .
, % of the Moon is Illuminated

Today's Extremes

State Highs State Lows

Community

WunderPhotos

Upload Photos

1,928,564 photos uploaded!

WunderBlog® & News

Nearby

Air Quality

  Air Quality AQ Index Pollutant
Not available.

Snow Depth

Station Depth Elevation

Earthquake Activity

City Distance Mag. Time & Date
Minimum magnitude displayed is 2.5.

Coastal Water Temperatures

Place Temperature

Stations

Nearby Weather Stations

Station Location Temp. Windchill Dew Point Humidity Wind Precip. Elev Updated Type
                   

Watches & Warnings

Flood Watch / Flood Statement
Issued: 7:14 AM MDT Jul. 30, 2016 – National Weather Service

... The Urban and Small Stream Flood Advisory will expire at 715 am
MST/715 am PDT/ for western La Paz... northwestern Yuma... eastern
Riverside and eastern Imperial counties...

The heavy rain has ended... and only light rain persists over the
area. Flooding is no longer expected to pose a threat.

Lat... Lon 3426 11397 3358 11418 3238 11432 3249 11481
      3262 11481 3271 11472 3272 11489 3361 11498
      3408 11470 3408 11445 3418 11423 3427 11413
      3431 11413


18